sensor_id;sensor_type;location;lat;lon;timestamp;temperature;humidity
17128;DHT22;8679;50.842;4.322;2022-12-17T00:00:06;-2.60;99.90
17128;DHT22;8679;50.842;4.322;2022-12-17T00:02:59;-2.70;99.90
17128;DHT22;8679;50.842;4.322;2022-12-17T00:05:44;-2.70;99.90
17128;DHT22;8679;50.842;4.322;2022-12-17T00:08:28;-2.70;99.90
17128;DHT22;8679;50.842;4.322;2022-12-17T00:11:12;-2.70;99.90
17128;DHT22;8679;50.842;4.322;2022-12-17T00:13:56;-2.80;99.90
17128;DHT22;8679;50.842;4.322;2022-12-17T00:16:40;-2.80;99.90
17128;DHT22;8679;50.842;4.322;2022-12-17T00:19:24;-2.90;99.90
17128;DHT22;8679;50.842;4.322;2022-12-17T00:22:08;-2.80;99.90
17128;DHT22;8679;50.842;4.322;2022-12-17T00:24:52;-2.80;99.90
17128;DHT22;8679;50.842;4.322;2022-12-17T00:27:38;-2.90;99.90
17128;DHT22;8679;50.842;4.322;2022-12-17T00:30:22;-3.00;99.90
17128;DHT22;8679;50.842;4.322;2022-12-17T00:33:06;-3.00;99.90
17128;DHT22;8679;50.842;4.322;2022-12-17T00:35:54;-3.00;99.90
17128;DHT22;8679;50.842;4.322;2022-12-17T00:38:38;-2.90;99.90
17128;DHT22;8679;50.842;4.322;2022-12-17T00:41:23;-3.00;99.90
17128;DHT22;8679;50.842;4.322;2022-12-17T00:44:07;-3.10;99.90
17128;DHT22;8679;50.842;4.322;2022-12-17T00:46:51;-3.10;99.90
17128;DHT22;8679;50.842;4.322;2022-12-17T00:49:35;-3.10;99.90
17128;DHT22;8679;50.842;4.322;2022-12-17T00:52:19;-3.10;99.90
17128;DHT22;8679;50.842;4.322;2022-12-17T00:55:04;-3.10;99.90
17128;DHT22;8679;50.842;4.322;2022-12-17T00:57:55;-3.10;99.90
17128;DHT22;8679;50.842;4.322;2022-12-17T01:00:40;-3.10;99.90
17128;DHT22;8679;50.842;4.322;2022-12-17T01:03:24;-3.10;99.90
17128;DHT22;8679;50.842;4.322;2022-12-17T01:06:09;-3.10;99.90
17128;DHT22;8679;50.842;4.322;2022-12-17T01:08:53;-3.10;99.90
17128;DHT22;8679;50.842;4.322;2022-12-17T01:11:37;-3.00;99.90
17128;DHT22;8679;50.842;4.322;2022-12-17T01:14:23;-3.10;99.90
17128;DHT22;8679;50.842;4.322;2022-12-17T01:17:07;-3.10;99.90
17128;DHT22;8679;50.842;4.322;2022-12-17T01:19:51;-3.20;99.90
17128;DHT22;8679;50.842;4.322;2022-12-17T01:22:35;-3.20;99.90
17128;DHT22;8679;50.842;4.322;2022-12-17T01:25:20;-3.20;99.90
17128;DHT22;8679;50.842;4.322;2022-12-17T01:28:04;-3.30;99.90
17128;DHT22;8679;50.842;4.322;2022-12-17T01:30:48;-3.40;99.90
17128;DHT22;8679;50.842;4.322;2022-12-17T01:33:32;-3.30;99.90
17128;DHT22;8679;50.842;4.322;2022-12-17T01:36:16;-3.30;99.90
17128;DHT22;8679;50.842;4.322;2022-12-17T01:39:01;-3.40;99.90
17128;DHT22;8679;50.842;4.322;2022-12-17T01:41:45;-3.50;99.90
17128;DHT22;8679;50.842;4.322;2022-12-17T01:44:54;-3.50;99.90
17128;DHT22;8679;50.842;4.322;2022-12-17T01:50:29;-3.50;99.90
17128;DHT22;8679;50.842;4.322;2022-12-17T01:53:15;-3.50;99.90
17128;DHT22;8679;50.842;4.322;2022-12-17T01:56:02;-3.40;99.90
17128;DHT22;8679;50.842;4.322;2022-12-17T01:58:47;-3.40;99.90
17128;DHT22;8679;50.842;4.322;2022-12-17T02:01:32;-3.40;99.90
17128;DHT22;8679;50.842;4.322;2022-12-17T02:04:16;-3.20;99.90
17128;DHT22;8679;50.842;4.322;2022-12-17T02:07:21;-3.30;99.90
17128;DHT22;8679;50.842;4.322;2022-12-17T02:13:18;-3.40;99.90
17128;DHT22;8679;50.842;4.322;2022-12-17T02:16:13;-3.40;99.90
17128;DHT22;8679;50.842;4.322;2022-12-17T02:22:44;-3.60;99.90
17128;DHT22;8679;50.842;4.322;2022-12-17T02:28:19;-3.60;99.90
17128;DHT22;8679;50.842;4.322;2022-12-17T02:31:05;-3.60;99.90
17128;DHT22;8679;50.842;4.322;2022-12-17T02:33:51;-3.60;99.90
17128;DHT22;8679;50.842;4.322;2022-12-17T02:36:35;-3.70;99.90
17128;DHT22;8679;50.842;4.322;2022-12-17T02:39:36;-3.70;99.90
17128;DHT22;8679;50.842;4.322;2022-12-17T02:42:22;-3.80;99.90
17128;DHT22;8679;50.842;4.322;2022-12-17T02:45:09;-3.80;99.90
17128;DHT22;8679;50.842;4.322;2022-12-17T02:47:55;-3.80;99.90
17128;DHT22;8679;50.842;4.322;2022-12-17T02:50:39;-3.90;99.90
17128;DHT22;8679;50.842;4.322;2022-12-17T02:53:23;-3.80;99.90
17128;DHT22;8679;50.842;4.322;2022-12-17T02:56:08;-3.90;99.90
17128;DHT22;8679;50.842;4.322;2022-12-17T02:58:52;-3.90;99.90
17128;DHT22;8679;50.842;4.322;2022-12-17T03:01:36;-3.90;99.90
17128;DHT22;8679;50.842;4.322;2022-12-17T03:04:20;-3.90;99.90
17128;DHT22;8679;50.842;4.322;2022-12-17T03:07:12;-4.00;99.90
17128;DHT22;8679;50.842;4.322;2022-12-17T03:09:56;-4.00;99.90
17128;DHT22;8679;50.842;4.322;2022-12-17T03:12:40;-4.10;99.90
17128;DHT22;8679;50.842;4.322;2022-12-17T03:15:24;-4.10;99.90
17128;DHT22;8679;50.842;4.322;2022-12-17T03:18:08;-4.10;99.90
17128;DHT22;8679;50.842;4.322;2022-12-17T03:20:53;-4.10;99.90
17128;DHT22;8679;50.842;4.322;2022-12-17T03:23:38;-4.10;99.90
17128;DHT22;8679;50.842;4.322;2022-12-17T03:26:42;-4.10;99.90
17128;DHT22;8679;50.842;4.322;2022-12-17T03:29:26;-4.10;99.90
17128;DHT22;8679;50.842;4.322;2022-12-17T03:32:11;-4.10;99.90
17128;DHT22;8679;50.842;4.322;2022-12-17T03:34:55;-4.10;99.90
17128;DHT22;8679;50.842;4.322;2022-12-17T03:37:39;-4.10;99.90
17128;DHT22;8679;50.842;4.322;2022-12-17T03:40:23;-4.10;99.90
17128;DHT22;8679;50.842;4.322;2022-12-17T03:43:08;-4.10;99.90
17128;DHT22;8679;50.842;4.322;2022-12-17T03:45:53;-4.10;99.90
17128;DHT22;8679;50.842;4.322;2022-12-17T03:48:38;-4.10;99.90
17128;DHT22;8679;50.842;4.322;2022-12-17T03:51:22;-4.10;99.90
17128;DHT22;8679;50.842;4.322;2022-12-17T03:54:06;-4.20;99.90
17128;DHT22;8679;50.842;4.322;2022-12-17T03:56:51;-4.10;99.90
17128;DHT22;8679;50.842;4.322;2022-12-17T03:59:35;-4.10;99.90
17128;DHT22;8679;50.842;4.322;2022-12-17T04:02:19;-4.10;99.90
17128;DHT22;8679;50.842;4.322;2022-12-17T04:05:03;-4.10;99.90
17128;DHT22;8679;50.842;4.322;2022-12-17T04:07:48;-4.00;99.90
17128;DHT22;8679;50.842;4.322;2022-12-17T04:10:32;-4.10;99.90
17128;DHT22;8679;50.842;4.322;2022-12-17T04:13:16;-4.10;99.90
17128;DHT22;8679;50.842;4.322;2022-12-17T04:16:01;-4.10;99.90
17128;DHT22;8679;50.842;4.322;2022-12-17T04:18:45;-4.10;99.90
17128;DHT22;8679;50.842;4.322;2022-12-17T04:21:29;-4.10;99.90
17128;DHT22;8679;50.842;4.322;2022-12-17T04:24:13;-4.10;99.90
17128;DHT22;8679;50.842;4.322;2022-12-17T04:26:57;-4.10;99.90
17128;DHT22;8679;50.842;4.322;2022-12-17T04:29:41;-4.00;99.90
17128;DHT22;8679;50.842;4.322;2022-12-17T04:32:25;-4.10;99.90
17128;DHT22;8679;50.842;4.322;2022-12-17T04:35:09;-4.10;99.90
17128;DHT22;8679;50.842;4.322;2022-12-17T04:37:54;-4.10;99.90
17128;DHT22;8679;50.842;4.322;2022-12-17T04:40:38;-4.10;99.90
17128;DHT22;8679;50.842;4.322;2022-12-17T04:43:22;-4.10;99.90
17128;DHT22;8679;50.842;4.322;2022-12-17T04:46:07;-4.10;99.90
17128;DHT22;8679;50.842;4.322;2022-12-17T04:48:51;-4.10;99.90
17128;DHT22;8679;50.842;4.322;2022-12-17T04:51:35;-4.00;99.90
17128;DHT22;8679;50.842;4.322;2022-12-17T04:54:19;-4.10;99.90
17128;DHT22;8679;50.842;4.322;2022-12-17T04:57:03;-4.10;99.90
17128;DHT22;8679;50.842;4.322;2022-12-17T04:59:47;-4.10;99.90
17128;DHT22;8679;50.842;4.322;2022-12-17T05:02:31;-4.10;99.90
17128;DHT22;8679;50.842;4.322;2022-12-17T05:05:15;-4.10;99.90
17128;DHT22;8679;50.842;4.322;2022-12-17T05:07:59;-4.20;99.90
17128;DHT22;8679;50.842;4.322;2022-12-17T05:10:43;-4.20;99.90
17128;DHT22;8679;50.842;4.322;2022-12-17T05:13:27;-4.20;99.90
17128;DHT22;8679;50.842;4.322;2022-12-17T05:16:13;-4.30;99.90
17128;DHT22;8679;50.842;4.322;2022-12-17T05:19:14;-4.20;99.90
17128;DHT22;8679;50.842;4.322;2022-12-17T05:21:58;-4.30;99.90
17128;DHT22;8679;50.842;4.322;2022-12-17T05:24:42;-4.30;99.90
17128;DHT22;8679;50.842;4.322;2022-12-17T05:27:26;-4.30;99.90
17128;DHT22;8679;50.842;4.322;2022-12-17T05:30:10;-4.20;99.90
17128;DHT22;8679;50.842;4.322;2022-12-17T05:33:02;-4.20;99.90
17128;DHT22;8679;50.842;4.322;2022-12-17T05:35:46;-4.20;99.90
17128;DHT22;8679;50.842;4.322;2022-12-17T05:38:31;-4.30;99.90
17128;DHT22;8679;50.842;4.322;2022-12-17T05:41:15;-4.40;99.90
17128;DHT22;8679;50.842;4.322;2022-12-17T05:43:59;-4.40;99.90
17128;DHT22;8679;50.842;4.322;2022-12-17T05:46:43;-4.50;99.90
17128;DHT22;8679;50.842;4.322;2022-12-17T05:49:27;-4.50;99.90
17128;DHT22;8679;50.842;4.322;2022-12-17T05:52:13;-4.50;99.90
17128;DHT22;8679;50.842;4.322;2022-12-17T05:54:57;-4.50;99.90
17128;DHT22;8679;50.842;4.322;2022-12-17T05:57:42;-4.50;99.90
17128;DHT22;8679;50.842;4.322;2022-12-17T06:00:26;-4.50;99.90
17128;DHT22;8679;50.842;4.322;2022-12-17T06:03:10;-4.50;99.90
17128;DHT22;8679;50.842;4.322;2022-12-17T06:05:55;-4.50;99.90
17128;DHT22;8679;50.842;4.322;2022-12-17T06:08:40;-4.60;99.90
17128;DHT22;8679;50.842;4.322;2022-12-17T06:11:24;-4.60;99.90
17128;DHT22;8679;50.842;4.322;2022-12-17T06:14:08;-4.70;99.90
17128;DHT22;8679;50.842;4.322;2022-12-17T06:16:52;-4.70;99.90
17128;DHT22;8679;50.842;4.322;2022-12-17T06:19:36;-4.60;99.90
17128;DHT22;8679;50.842;4.322;2022-12-17T06:22:20;-4.60;99.90
17128;DHT22;8679;50.842;4.322;2022-12-17T06:25:12;-4.70;99.90
17128;DHT22;8679;50.842;4.322;2022-12-17T06:28:00;-4.70;99.90
17128;DHT22;8679;50.842;4.322;2022-12-17T06:30:51;-4.70;99.90
17128;DHT22;8679;50.842;4.322;2022-12-17T06:33:36;-4.70;99.90
17128;DHT22;8679;50.842;4.322;2022-12-17T06:36:20;-4.70;99.90
17128;DHT22;8679;50.842;4.322;2022-12-17T06:39:05;-4.60;99.90
17128;DHT22;8679;50.842;4.322;2022-12-17T06:41:49;-4.60;99.90
17128;DHT22;8679;50.842;4.322;2022-12-17T06:44:33;-4.50;99.90
17128;DHT22;8679;50.842;4.322;2022-12-17T06:47:17;-4.60;99.90
17128;DHT22;8679;50.842;4.322;2022-12-17T06:50:03;-4.50;99.90
17128;DHT22;8679;50.842;4.322;2022-12-17T06:52:55;-4.50;99.90
17128;DHT22;8679;50.842;4.322;2022-12-17T06:55:40;-4.50;99.90
17128;DHT22;8679;50.842;4.322;2022-12-17T06:58:24;-4.60;99.90
17128;DHT22;8679;50.842;4.322;2022-12-17T07:01:19;-4.60;99.90
17128;DHT22;8679;50.842;4.322;2022-12-17T07:04:03;-4.60;99.90
17128;DHT22;8679;50.842;4.322;2022-12-17T07:06:48;-4.60;99.90
17128;DHT22;8679;50.842;4.322;2022-12-17T07:09:33;-4.60;99.90
17128;DHT22;8679;50.842;4.322;2022-12-17T07:12:17;-4.70;99.90
17128;DHT22;8679;50.842;4.322;2022-12-17T07:15:01;-4.70;99.90
17128;DHT22;8679;50.842;4.322;2022-12-17T07:17:56;-4.70;99.90
17128;DHT22;8679;50.842;4.322;2022-12-17T07:20:40;-4.70;99.90
17128;DHT22;8679;50.842;4.322;2022-12-17T07:23:25;-4.80;99.90
17128;DHT22;8679;50.842;4.322;2022-12-17T07:26:09;-4.90;99.90
17128;DHT22;8679;50.842;4.322;2022-12-17T07:28:53;-4.90;99.90
17128;DHT22;8679;50.842;4.322;2022-12-17T07:31:37;-4.80;99.90
17128;DHT22;8679;50.842;4.322;2022-12-17T07:34:21;-4.70;99.90
17128;DHT22;8679;50.842;4.322;2022-12-17T07:37:05;-4.70;99.90
17128;DHT22;8679;50.842;4.322;2022-12-17T07:39:49;-4.80;99.90
17128;DHT22;8679;50.842;4.322;2022-12-17T07:42:33;-4.80;99.90
17128;DHT22;8679;50.842;4.322;2022-12-17T07:45:17;-4.80;99.90
17128;DHT22;8679;50.842;4.322;2022-12-17T07:48:02;-4.80;99.90
17128;DHT22;8679;50.842;4.322;2022-12-17T07:50:49;-4.70;99.90
17128;DHT22;8679;50.842;4.322;2022-12-17T07:53:34;-4.70;99.90
17128;DHT22;8679;50.842;4.322;2022-12-17T07:56:18;-4.60;99.90
17128;DHT22;8679;50.842;4.322;2022-12-17T07:59:03;-4.60;99.90
17128;DHT22;8679;50.842;4.322;2022-12-17T08:01:48;-4.50;99.90
17128;DHT22;8679;50.842;4.322;2022-12-17T08:04:32;-4.40;99.90
17128;DHT22;8679;50.842;4.322;2022-12-17T08:07:17;-4.40;99.90
17128;DHT22;8679;50.842;4.322;2022-12-17T08:10:01;-4.40;99.90
17128;DHT22;8679;50.842;4.322;2022-12-17T08:13:00;-4.40;99.90
17128;DHT22;8679;50.842;4.322;2022-12-17T08:15:45;-4.20;99.90
17128;DHT22;8679;50.842;4.322;2022-12-17T08:18:31;-4.20;99.90
17128;DHT22;8679;50.842;4.322;2022-12-17T08:21:16;-4.10;99.90
17128;DHT22;8679;50.842;4.322;2022-12-17T08:24:00;-4.00;99.90
17128;DHT22;8679;50.842;4.322;2022-12-17T08:26:44;-3.90;99.90
17128;DHT22;8679;50.842;4.322;2022-12-17T08:29:48;-3.90;99.90
17128;DHT22;8679;50.842;4.322;2022-12-17T08:32:32;-3.80;99.90
17128;DHT22;8679;50.842;4.322;2022-12-17T08:35:17;-3.70;99.90
17128;DHT22;8679;50.842;4.322;2022-12-17T08:38:02;-3.60;99.90
17128;DHT22;8679;50.842;4.322;2022-12-17T08:40:46;-3.60;99.90
17128;DHT22;8679;50.842;4.322;2022-12-17T08:43:31;-3.60;99.90
17128;DHT22;8679;50.842;4.322;2022-12-17T08:46:15;-3.50;99.90
17128;DHT22;8679;50.842;4.322;2022-12-17T08:48:59;-3.50;99.90
17128;DHT22;8679;50.842;4.322;2022-12-17T08:51:43;-3.50;99.90
17128;DHT22;8679;50.842;4.322;2022-12-17T08:54:27;-3.40;99.90
17128;DHT22;8679;50.842;4.322;2022-12-17T08:57:11;-3.40;99.90
17128;DHT22;8679;50.842;4.322;2022-12-17T08:59:55;-3.30;99.90
17128;DHT22;8679;50.842;4.322;2022-12-17T09:02:40;-3.20;99.90
17128;DHT22;8679;50.842;4.322;2022-12-17T09:05:24;-3.20;99.90
17128;DHT22;8679;50.842;4.322;2022-12-17T09:08:09;-3.20;99.90
17128;DHT22;8679;50.842;4.322;2022-12-17T09:10:53;-3.10;99.90
17128;DHT22;8679;50.842;4.322;2022-12-17T09:13:37;-3.10;99.90
17128;DHT22;8679;50.842;4.322;2022-12-17T09:16:22;-3.10;99.90
17128;DHT22;8679;50.842;4.322;2022-12-17T09:19:09;-3.10;99.90
17128;DHT22;8679;50.842;4.322;2022-12-17T09:21:53;-3.00;99.90
17128;DHT22;8679;50.842;4.322;2022-12-17T09:24:40;-3.00;99.90
17128;DHT22;8679;50.842;4.322;2022-12-17T09:27:24;-2.90;99.90
17128;DHT22;8679;50.842;4.322;2022-12-17T09:30:09;-2.90;99.90
17128;DHT22;8679;50.842;4.322;2022-12-17T09:32:53;-2.90;99.90
17128;DHT22;8679;50.842;4.322;2022-12-17T09:35:42;-2.80;99.90
17128;DHT22;8679;50.842;4.322;2022-12-17T09:38:26;-2.70;99.90
17128;DHT22;8679;50.842;4.322;2022-12-17T09:44:11;-2.70;99.90
17128;DHT22;8679;50.842;4.322;2022-12-17T09:48:05;-2.60;99.90
17128;DHT22;8679;50.842;4.322;2022-12-17T09:50:15;-2.40;99.90
17128;DHT22;8679;50.842;4.322;2022-12-17T09:53:01;-2.30;99.90
17128;DHT22;8679;50.842;4.322;2022-12-17T09:55:50;-2.20;99.90
17128;DHT22;8679;50.842;4.322;2022-12-17T09:58:37;-2.10;99.90
17128;DHT22;8679;50.842;4.322;2022-12-17T10:01:26;-2.00;99.90
17128;DHT22;8679;50.842;4.322;2022-12-17T10:04:16;-1.90;99.90
17128;DHT22;8679;50.842;4.322;2022-12-17T10:07:02;-1.80;99.90
17128;DHT22;8679;50.842;4.322;2022-12-17T10:09:50;-1.80;99.90
17128;DHT22;8679;50.842;4.322;2022-12-17T10:12:48;-1.70;99.90
17128;DHT22;8679;50.842;4.322;2022-12-17T10:15:33;-1.70;99.90
17128;DHT22;8679;50.842;4.322;2022-12-17T10:18:17;-1.60;99.90
17128;DHT22;8679;50.842;4.322;2022-12-17T10:21:04;-1.50;99.90
17128;DHT22;8679;50.842;4.322;2022-12-17T10:23:49;-1.40;99.90
17128;DHT22;8679;50.842;4.322;2022-12-17T10:26:34;-1.40;99.90
17128;DHT22;8679;50.842;4.322;2022-12-17T10:29:23;-1.40;99.90
17128;DHT22;8679;50.842;4.322;2022-12-17T10:32:11;-1.40;99.90
17128;DHT22;8679;50.842;4.322;2022-12-17T10:35:12;-1.40;99.90
17128;DHT22;8679;50.842;4.322;2022-12-17T10:38:01;-1.30;99.90
17128;DHT22;8679;50.842;4.322;2022-12-17T10:40:52;-1.30;99.90
17128;DHT22;8679;50.842;4.322;2022-12-17T10:43:38;-1.20;99.90
17128;DHT22;8679;50.842;4.322;2022-12-17T10:46:30;-1.10;99.90
17128;DHT22;8679;50.842;4.322;2022-12-17T10:49:23;-1.10;99.90
17128;DHT22;8679;50.842;4.322;2022-12-17T10:52:29;-1.00;99.90
17128;DHT22;8679;50.842;4.322;2022-12-17T10:55:28;-0.90;99.90
17128;DHT22;8679;50.842;4.322;2022-12-17T10:58:15;-0.80;99.90
17128;DHT22;8679;50.842;4.322;2022-12-17T11:01:02;-0.60;99.90
17128;DHT22;8679;50.842;4.322;2022-12-17T11:06:50;0.00;99.90
17128;DHT22;8679;50.842;4.322;2022-12-17T11:09:45;0.20;99.90
17128;DHT22;8679;50.842;4.322;2022-12-17T11:15:47;0.70;99.90
17128;DHT22;8679;50.842;4.322;2022-12-17T11:21:44;1.10;99.90
17128;DHT22;8679;50.842;4.322;2022-12-17T11:25:01;1.50;99.90
17128;DHT22;8679;50.842;4.322;2022-12-17T11:27:44;2.00;99.90
17128;DHT22;8679;50.842;4.322;2022-12-17T11:30:32;2.50;99.90
17128;DHT22;8679;50.842;4.322;2022-12-17T11:33:34;2.50;99.90
17128;DHT22;8679;50.842;4.322;2022-12-17T11:36:35;2.60;99.90
17128;DHT22;8679;50.842;4.322;2022-12-17T11:39:33;2.70;99.90
17128;DHT22;8679;50.842;4.322;2022-12-17T11:42:39;3.10;99.90
17128;DHT22;8679;50.842;4.322;2022-12-17T11:49:09;3.40;83.10
17128;DHT22;8679;50.842;4.322;2022-12-17T11:52:10;3.40;90.20
17128;DHT22;8679;50.842;4.322;2022-12-17T11:55:20;3.20;54.60
17128;DHT22;8679;50.842;4.322;2022-12-17T11:58:13;3.40;96.70
17128;DHT22;8679;50.842;4.322;2022-12-17T12:01:19;3.70;48.00
17128;DHT22;8679;50.842;4.322;2022-12-17T12:10:34;3.90;7.00
17128;DHT22;8679;50.842;4.322;2022-12-17T12:13:29;4.00;18.60
17128;DHT22;8679;50.842;4.322;2022-12-17T12:19:20;4.60;5.60
17128;DHT22;8679;50.842;4.322;2022-12-17T12:22:18;4.80;36.10
17128;DHT22;8679;50.842;4.322;2022-12-17T12:34:31;5.80;1.00
17128;DHT22;8679;50.842;4.322;2022-12-17T12:37:18;6.00;1.00
17128;DHT22;8679;50.842;4.322;2022-12-17T12:43:03;6.20;1.00
17128;DHT22;8679;50.842;4.322;2022-12-17T12:45:51;6.30;1.00
17128;DHT22;8679;50.842;4.322;2022-12-17T12:48:55;6.30;1.00
17128;DHT22;8679;50.842;4.322;2022-12-17T12:51:42;6.60;1.00
17128;DHT22;8679;50.842;4.322;2022-12-17T12:54:48;7.00;1.00
17128;DHT22;8679;50.842;4.322;2022-12-17T13:00:52;6.60;99.90
17128;DHT22;8679;50.842;4.322;2022-12-17T13:03:50;6.90;99.90
17128;DHT22;8679;50.842;4.322;2022-12-17T13:06:55;7.00;99.90
17128;DHT22;8679;50.842;4.322;2022-12-17T13:12:15;7.00;99.90
17128;DHT22;8679;50.842;4.322;2022-12-17T13:17:34;7.10;99.90
17128;DHT22;8679;50.842;4.322;2022-12-17T13:20:26;7.00;99.90
17128;DHT22;8679;50.842;4.322;2022-12-17T13:25:35;7.10;99.90
17128;DHT22;8679;50.842;4.322;2022-12-17T13:28:01;6.90;99.90
17128;DHT22;8679;50.842;4.322;2022-12-17T13:30:33;6.90;99.90
17128;DHT22;8679;50.842;4.322;2022-12-17T13:33:27;6.70;99.90
17128;DHT22;8679;50.842;4.322;2022-12-17T13:36:22;6.50;99.90
17128;DHT22;8679;50.842;4.322;2022-12-17T13:39:07;6.30;99.90
17128;DHT22;8679;50.842;4.322;2022-12-17T13:41:36;6.30;99.90
17128;DHT22;8679;50.842;4.322;2022-12-17T13:44:21;6.30;99.90
17128;DHT22;8679;50.842;4.322;2022-12-17T13:46:49;6.60;99.90
17128;DHT22;8679;50.842;4.322;2022-12-17T13:49:26;6.60;99.90
17128;DHT22;8679;50.842;4.322;2022-12-17T13:52:00;6.50;99.90
17128;DHT22;8679;50.842;4.322;2022-12-17T13:54:26;6.70;99.90
17128;DHT22;8679;50.842;4.322;2022-12-17T13:56:51;6.30;99.90
17128;DHT22;8679;50.842;4.322;2022-12-17T13:59:21;6.20;99.90
17128;DHT22;8679;50.842;4.322;2022-12-17T14:01:52;6.00;99.90
17128;DHT22;8679;50.842;4.322;2022-12-17T14:04:27;5.90;99.90
17128;DHT22;8679;50.842;4.322;2022-12-17T14:06:56;6.20;99.90
17128;DHT22;8679;50.842;4.322;2022-12-17T14:09:31;6.30;99.90
17128;DHT22;8679;50.842;4.322;2022-12-17T14:11:57;6.30;99.90
17128;DHT22;8679;50.842;4.322;2022-12-17T14:14:47;5.80;99.90
17128;DHT22;8679;50.842;4.322;2022-12-17T14:17:22;5.90;99.90
17128;DHT22;8679;50.842;4.322;2022-12-17T14:22:52;5.20;99.90
17128;DHT22;8679;50.842;4.322;2022-12-17T14:25:21;5.40;99.90
17128;DHT22;8679;50.842;4.322;2022-12-17T14:27:57;5.20;99.90
17128;DHT22;8679;50.842;4.322;2022-12-17T14:33:01;4.90;99.90
17128;DHT22;8679;50.842;4.322;2022-12-17T14:35:35;4.80;1.00
17128;DHT22;8679;50.842;4.322;2022-12-17T14:38:03;4.70;1.00
17128;DHT22;8679;50.842;4.322;2022-12-17T14:40:29;4.60;1.00
17128;DHT22;8679;50.842;4.322;2022-12-17T14:42:59;4.30;1.00
17128;DHT22;8679;50.842;4.322;2022-12-17T14:45:26;4.10;1.00
17128;DHT22;8679;50.842;4.322;2022-12-17T14:47:56;3.90;1.00
17128;DHT22;8679;50.842;4.322;2022-12-17T14:50:32;3.80;1.00
17128;DHT22;8679;50.842;4.322;2022-12-17T14:52:59;3.70;1.00
17128;DHT22;8679;50.842;4.322;2022-12-17T14:55:37;3.60;1.00
17128;DHT22;8679;50.842;4.322;2022-12-17T15:05:51;3.10;1.00
17128;DHT22;8679;50.842;4.322;2022-12-17T15:08:17;3.00;1.00
17128;DHT22;8679;50.842;4.322;2022-12-17T15:10:43;2.80;1.00
17128;DHT22;8679;50.842;4.322;2022-12-17T15:13:09;2.70;1.00
17128;DHT22;8679;50.842;4.322;2022-12-17T15:15:35;2.60;1.00
17128;DHT22;8679;50.842;4.322;2022-12-17T15:18:00;2.50;1.00
17128;DHT22;8679;50.842;4.322;2022-12-17T15:20:26;2.30;1.00
17128;DHT22;8679;50.842;4.322;2022-12-17T15:22:51;2.30;1.00
17128;DHT22;8679;50.842;4.322;2022-12-17T15:25:18;2.20;1.00
17128;DHT22;8679;50.842;4.322;2022-12-17T15:27:44;2.10;1.00
17128;DHT22;8679;50.842;4.322;2022-12-17T15:30:14;2.00;1.00
17128;DHT22;8679;50.842;4.322;2022-12-17T15:32:41;1.80;1.00
17128;DHT22;8679;50.842;4.322;2022-12-17T15:35:07;1.70;1.00
17128;DHT22;8679;50.842;4.322;2022-12-17T15:37:33;1.70;1.00
17128;DHT22;8679;50.842;4.322;2022-12-17T15:39:58;1.60;1.00
17128;DHT22;8679;50.842;4.322;2022-12-17T15:42:24;1.50;1.00
17128;DHT22;8679;50.842;4.322;2022-12-17T15:45:08;1.40;1.00
17128;DHT22;8679;50.842;4.322;2022-12-17T15:47:34;1.30;1.00
17128;DHT22;8679;50.842;4.322;2022-12-17T15:49:59;1.20;1.00
17128;DHT22;8679;50.842;4.322;2022-12-17T15:52:25;1.10;6.40
17128;DHT22;8679;50.842;4.322;2022-12-17T15:54:51;1.00;21.20
17128;DHT22;8679;50.842;4.322;2022-12-17T15:57:16;1.00;28.80
17128;DHT22;8679;50.842;4.322;2022-12-17T15:59:42;0.80;40.40
17128;DHT22;8679;50.842;4.322;2022-12-17T16:02:09;0.70;48.80
17128;DHT22;8679;50.842;4.322;2022-12-17T16:04:35;0.60;57.30
17128;DHT22;8679;50.842;4.322;2022-12-17T16:07:03;0.60;67.90
17128;DHT22;8679;50.842;4.322;2022-12-17T16:09:29;0.50;95.40
17128;DHT22;8679;50.842;4.322;2022-12-17T16:11:55;0.50;99.90
17128;DHT22;8679;50.842;4.322;2022-12-17T16:14:24;0.40;99.90
17128;DHT22;8679;50.842;4.322;2022-12-17T16:16:50;0.40;99.90
17128;DHT22;8679;50.842;4.322;2022-12-17T16:19:16;0.30;99.90
17128;DHT22;8679;50.842;4.322;2022-12-17T16:21:42;0.30;99.90
17128;DHT22;8679;50.842;4.322;2022-12-17T16:24:08;0.30;99.90
17128;DHT22;8679;50.842;4.322;2022-12-17T16:26:35;0.20;99.90
17128;DHT22;8679;50.842;4.322;2022-12-17T16:29:02;0.20;99.90
17128;DHT22;8679;50.842;4.322;2022-12-17T16:31:27;0.10;99.90
17128;DHT22;8679;50.842;4.322;2022-12-17T16:33:56;0.10;99.90
17128;DHT22;8679;50.842;4.322;2022-12-17T16:36:25;0.00;99.90
17128;DHT22;8679;50.842;4.322;2022-12-17T16:38:53;0.00;99.90
17128;DHT22;8679;50.842;4.322;2022-12-17T16:41:20;-0.10;99.90
17128;DHT22;8679;50.842;4.322;2022-12-17T16:43:46;-0.10;99.90
17128;DHT22;8679;50.842;4.322;2022-12-17T16:46:35;-0.10;99.90
17128;DHT22;8679;50.842;4.322;2022-12-17T16:49:06;-0.10;99.90
17128;DHT22;8679;50.842;4.322;2022-12-17T16:51:35;-0.10;99.90
17128;DHT22;8679;50.842;4.322;2022-12-17T16:54:04;-0.20;99.90
17128;DHT22;8679;50.842;4.322;2022-12-17T16:56:30;-0.20;99.90
17128;DHT22;8679;50.842;4.322;2022-12-17T16:58:56;-0.30;99.90
17128;DHT22;8679;50.842;4.322;2022-12-17T17:01:27;-0.30;99.90
17128;DHT22;8679;50.842;4.322;2022-12-17T17:03:54;-0.30;99.90
17128;DHT22;8679;50.842;4.322;2022-12-17T17:06:20;-0.30;99.90
17128;DHT22;8679;50.842;4.322;2022-12-17T17:08:46;-0.30;99.90
17128;DHT22;8679;50.842;4.322;2022-12-17T17:11:20;-0.30;99.90
17128;DHT22;8679;50.842;4.322;2022-12-17T17:13:48;-0.30;99.90
17128;DHT22;8679;50.842;4.322;2022-12-17T17:16:14;-0.30;99.90
17128;DHT22;8679;50.842;4.322;2022-12-17T17:18:40;-0.30;99.90
17128;DHT22;8679;50.842;4.322;2022-12-17T17:23:49;-0.20;99.90
17128;DHT22;8679;50.842;4.322;2022-12-17T17:26:15;-0.20;99.90
17128;DHT22;8679;50.842;4.322;2022-12-17T17:28:41;-0.20;99.90
17128;DHT22;8679;50.842;4.322;2022-12-17T17:31:10;-0.20;99.90
17128;DHT22;8679;50.842;4.322;2022-12-17T17:33:38;-0.20;99.90
17128;DHT22;8679;50.842;4.322;2022-12-17T17:36:09;-0.20;99.90
17128;DHT22;8679;50.842;4.322;2022-12-17T17:38:37;-0.10;99.90
17128;DHT22;8679;50.842;4.322;2022-12-17T17:41:04;-0.20;99.90
17128;DHT22;8679;50.842;4.322;2022-12-17T17:43:30;-0.20;99.90
17128;DHT22;8679;50.842;4.322;2022-12-17T17:46:13;-0.20;99.90
17128;DHT22;8679;50.842;4.322;2022-12-17T17:48:39;-0.30;99.90
17128;DHT22;8679;50.842;4.322;2022-12-17T17:51:08;-0.30;99.90
17128;DHT22;8679;50.842;4.322;2022-12-17T17:53:35;-0.30;99.90
17128;DHT22;8679;50.842;4.322;2022-12-17T17:56:02;-0.30;99.90
17128;DHT22;8679;50.842;4.322;2022-12-17T17:58:28;-0.30;99.90
17128;DHT22;8679;50.842;4.322;2022-12-17T18:00:54;-0.40;99.90
17128;DHT22;8679;50.842;4.322;2022-12-17T18:03:19;-0.40;99.90
17128;DHT22;8679;50.842;4.322;2022-12-17T18:05:45;-0.50;99.90
17128;DHT22;8679;50.842;4.322;2022-12-17T18:08:11;-0.50;99.90
17128;DHT22;8679;50.842;4.322;2022-12-17T18:10:37;-0.40;99.90
17128;DHT22;8679;50.842;4.322;2022-12-17T18:13:03;-0.40;99.90
17128;DHT22;8679;50.842;4.322;2022-12-17T18:15:47;-0.40;99.90
17128;DHT22;8679;50.842;4.322;2022-12-17T18:18:13;-0.40;99.90
17128;DHT22;8679;50.842;4.322;2022-12-17T18:20:38;-0.30;99.90
17128;DHT22;8679;50.842;4.322;2022-12-17T18:23:04;-0.40;99.90
17128;DHT22;8679;50.842;4.322;2022-12-17T18:25:30;-0.40;99.90
17128;DHT22;8679;50.842;4.322;2022-12-17T18:27:58;-0.50;99.90
17128;DHT22;8679;50.842;4.322;2022-12-17T18:30:23;-0.50;99.90
17128;DHT22;8679;50.842;4.322;2022-12-17T18:32:49;-0.40;99.90
17128;DHT22;8679;50.842;4.322;2022-12-17T18:35:15;-0.50;99.90
17128;DHT22;8679;50.842;4.322;2022-12-17T18:37:41;-0.50;99.90
17128;DHT22;8679;50.842;4.322;2022-12-17T18:40:07;-0.30;99.90